Time;durP1;ratioP1;P1;durP2;ratioP2;P2;SDS_P1;SDS_P2;PMS_P1;PMS_P2;Temp;Humidity;BMP_temperature;BMP_pressure;BME280_temperature;BME280_humidity;BME280_pressure;Samples;Min_cycle;Max_cycle;Signal;HPM_P1;HPM_P2
2023/12/24 00:01:33;;;;;;;1.63;1.13;;;;;;;9.04;62.42;98404.94;4942650;27;102682;-65
2023/12/24 00:04:01;;;;;;;1.63;1.20;;;;;;;9.07;61.85;98414.38;4941740;27;104396;-65
2023/12/24 00:06:29;;;;;;;1.30;1.10;;;;;;;9.09;61.99;98415.84;4939095;27;104210;-65
2023/12/24 00:08:57;;;;;;;2.95;1.33;;;;;;;9.06;61.51;98418.81;4939816;27;102566;-65
2023/12/24 00:11:29;;;;;;;1.70;1.13;;;;;;;9.02;61.72;98422.78;4935475;27;103073;-65
2023/12/24 00:13:57;;;;;;;1.27;1.10;;;;;;;9.06;61.90;98424.09;4919301;27;103295;-66
2023/12/24 00:16:25;;;;;;;1.25;1.02;;;;;;;9.10;61.66;98416.66;4934743;27;103298;-66
2023/12/24 00:18:53;;;;;;;1.30;1.10;;;;;;;9.06;61.41;98405.59;4939422;27;102578;-66
2023/12/24 00:21:21;;;;;;;1.10;1.00;;;;;;;9.13;61.54;98419.81;4942468;27;102572;-66
2023/12/24 00:23:49;;;;;;;2.13;1.33;;;;;;;9.13;61.23;98414.53;4926834;27;104535;-66
2023/12/24 00:26:18;;;;;;;1.85;1.30;;;;;;;9.05;61.48;98419.81;4925073;27;104631;-65
2023/12/24 00:28:49;;;;;;;1.50;1.10;;;;;;;9.04;61.26;98407.59;4943202;27;102663;-66
2023/12/24 00:31:17;;;;;;;1.45;1.02;;;;;;;9.12;61.57;98412.88;4951614;27;103278;-65
2023/12/24 00:33:45;;;;;;;2.55;1.33;;;;;;;9.12;61.50;98402.28;4927847;28;104415;-66
2023/12/24 00:36:13;;;;;;;2.63;1.20;;;;;;;9.11;62.18;98408.56;4939497;27;103065;-66
2023/12/24 00:38:40;;;;;;;1.40;1.10;;;;;;;9.03;61.78;98395.38;4945518;27;103126;-66
2023/12/24 00:41:11;;;;;;;1.60;1.23;;;;;;;9.04;62.34;98389.09;4918846;28;103919;-65
2023/12/24 00:43:39;;;;;;;1.52;1.25;;;;;;;8.97;62.31;98398.66;4925666;27;104319;-65
2023/12/24 00:46:08;;;;;;;1.38;1.05;;;;;;;9.02;61.86;98387.63;4925233;28;103134;-65
2023/12/24 00:48:36;;;;;;;1.08;0.98;;;;;;;9.07;62.56;98385.31;4938844;27;103265;-66
2023/12/24 00:51:04;;;;;;;1.58;1.10;;;;;;;9.00;62.36;98382.50;4943491;27;102881;-65
2023/12/24 00:53:32;;;;;;;1.30;1.10;;;;;;;8.99;62.50;98388.78;4926744;28;103754;-65
2023/12/24 00:56:00;;;;;;;1.10;1.00;;;;;;;9.00;62.32;98382.50;4921883;27;103233;-65
2023/12/24 00:58:27;;;;;;;1.35;1.17;;;;;;;8.99;62.31;98374.72;4932221;27;102904;-65
2023/12/24 01:00:55;;;;;;;1.10;1.00;;;;;;;8.96;61.91;98381.16;4935438;27;102909;-65
2023/12/24 01:03:26;;;;;;;2.05;1.30;;;;;;;8.96;61.83;98381.16;4939263;27;103990;-65
2023/12/24 01:05:54;;;;;;;1.45;1.20;;;;;;;8.99;61.60;98388.78;4915210;28;104203;-65
2023/12/24 01:08:22;;;;;;;3.67;1.20;;;;;;;8.98;61.69;98389.75;4940076;27;104171;-65
2023/12/24 01:10:52;;;;;;;2.47;1.10;;;;;;;8.95;61.56;98390.09;4939037;28;102721;-65
2023/12/24 01:13:21;;;;;;;1.17;1.05;;;;;;;8.93;61.28;98389.41;4922709;27;104489;-65
2023/12/24 01:15:49;;;;;;;1.90;1.15;;;;;;;8.94;60.92;98393.72;4929824;27;103237;-65
2023/12/24 01:18:17;;;;;;;1.33;1.20;;;;;;;8.90;61.26;98398.50;4933551;27;102625;-65
2023/12/24 01:20:46;;;;;;;1.10;1.00;;;;;;;8.91;60.79;98388.78;4928594;27;104382;-65
2023/12/24 01:23:14;;;;;;;1.88;1.30;;;;;;;8.96;60.42;98402.28;4960611;27;104039;-65
2023/12/24 01:25:43;;;;;;;1.35;1.00;;;;;;;8.96;60.49;98399.66;4939480;27;103248;-65
2023/12/24 01:28:13;;;;;;;1.75;1.25;;;;;;;9.00;59.94;98401.00;4949650;27;103148;-65
2023/12/24 01:30:41;;;;;;;1.75;1.00;;;;;;;8.99;60.31;98404.63;4916939;28;104530;-65
2023/12/24 01:33:09;;;;;;;1.73;1.38;;;;;;;9.05;60.27;98400.47;4921100;27;104036;-65
2023/12/24 01:35:40;;;;;;;2.03;1.35;;;;;;;9.01;60.46;98388.59;4938162;27;103245;-65
2023/12/24 01:38:09;;;;;;;2.08;1.30;;;;;;;8.99;60.26;98396.69;4925697;27;102971;-66
2023/12/24 01:40:37;;;;;;;1.92;1.30;;;;;;;9.03;60.41;98386.63;4923072;27;102839;-66
2023/12/24 01:43:07;;;;;;;2.97;1.35;;;;;;;8.93;60.09;98381.50;4942370;27;103933;-66
2023/12/24 01:45:38;;;;;;;1.98;1.50;;;;;;;8.89;60.47;98388.91;4931824;27;104232;-66
2023/12/24 01:48:07;;;;;;;3.67;1.48;;;;;;;8.92;60.18;98379.84;4927603;28;102751;-66
2023/12/24 01:50:35;;;;;;;1.45;1.10;;;;;;;9.01;60.83;98373.56;4929942;28;102842;-65
2023/12/24 01:53:05;;;;;;;1.35;1.20;;;;;;;8.97;60.58;98369.59;4941358;27;103268;-66
2023/12/24 01:55:34;;;;;;;1.45;1.20;;;;;;;8.85;60.74;98368.31;4922617;28;103297;-66
2023/12/24 01:58:03;;;;;;;2.13;1.05;;;;;;;8.86;60.75;98388.44;4922219;28;102661;-66
2023/12/24 02:00:32;;;;;;;3.85;1.30;;;;;;;8.91;61.15;98396.69;4933604;27;103130;-65
2023/12/24 02:03:05;;;;;;;1.98;1.27;;;;;;;8.91;61.29;98400.16;4936747;27;104217;-66
2023/12/24 02:05:33;;;;;;;1.70;1.30;;;;;;;8.83;60.91;98391.41;4939198;27;103176;-66
2023/12/24 02:08:02;;;;;;;2.95;1.10;;;;;;;8.82;61.02;98387.09;4937781;27;102884;-65
2023/12/24 02:10:30;;;;;;;1.13;0.98;;;;;;;8.78;61.29;98384.78;4937445;28;103151;-65
2023/12/24 02:13:00;;;;;;;6.95;1.50;;;;;;;8.83;61.49;98380.84;4928230;27;104232;-66
2023/12/24 02:15:29;;;;;;;1.27;1.00;;;;;;;8.70;61.18;98374.25;4936839;27;103267;-66
2023/12/24 02:18:00;;;;;;;2.30;1.40;;;;;;;8.65;61.09;98368.63;4935491;27;102835;-66
2023/12/24 02:20:29;;;;;;;1.65;1.25;;;;;;;8.72;61.79;98372.25;4918673;28;104277;-65
2023/12/24 02:22:58;;;;;;;2.63;1.40;;;;;;;8.74;61.03;98383.47;4937280;28;103312;-65
2023/12/24 02:25:27;;;;;;;1.27;1.10;;;;;;;8.77;61.19;98387.59;4941077;27;102948;-65
2023/12/24 02:28:02;;;;;;;1.05;1.00;;;;;;;8.84;61.18;98393.06;4926660;28;103139;-65
2023/12/24 02:30:36;;;;;;;1.00;0.90;;;;;;;8.74;60.93;98395.88;4945831;27;104299;-65
2023/12/24 02:33:09;;;;;;;0.80;0.80;;;;;;;8.83;61.18;98394.88;4944646;27;103214;-65
2023/12/24 02:35:39;;;;;;;1.67;1.05;;;;;;;8.85;60.92;98410.56;4939205;27;103209;-65
2023/12/24 02:38:08;;;;;;;1.75;1.10;;;;;;;8.82;61.35;98397.66;4939099;27;102916;-65
2023/12/24 02:40:36;;;;;;;1.20;1.10;;;;;;;8.85;61.24;98406.09;4936792;27;102792;-65
2023/12/24 02:43:04;;;;;;;2.42;1.10;;;;;;;8.76;61.77;98407.91;4932788;27;104264;-65
2023/12/24 02:45:32;;;;;;;1.20;1.00;;;;;;;8.75;62.23;98395.69;4940971;27;103190;-65
2023/12/24 02:48:00;;;;;;;1.48;1.10;;;;;;;8.76;61.97;98405.28;4919746;27;102717;-65
2023/12/24 02:50:32;;;;;;;1.15;0.90;;;;;;;8.74;62.14;98404.59;4939481;27;105290;-65
2023/12/24 02:53:02;;;;;;;2.08;1.10;;;;;;;8.70;62.22;98408.56;4941431;27;103212;-65
2023/12/24 02:55:31;;;;;;;3.38;1.30;;;;;;;8.68;62.05;98407.88;4938134;27;103770;-65
2023/12/24 02:57:59;;;;;;;0.82;0.80;;;;;;;8.73;62.24;98392.38;4941531;27;102667;-67
2023/12/24 03:00:29;;;;;;;2.70;1.20;;;;;;;8.71;62.96;98386.47;4954312;27;104110;-66
2023/12/24 03:02:57;;;;;;;0.98;0.90;;;;;;;8.66;62.57;98395.84;4946043;27;103496;-65
2023/12/24 03:05:25;;;;;;;2.05;1.17;;;;;;;8.68;62.89;98389.41;4946273;27;103212;-65
2023/12/24 03:07:53;;;;;;;1.42;1.05;;;;;;;8.66;62.81;98386.13;4924136;27;102663;-65
2023/12/24 03:10:21;;;;;;;0.93;0.82;;;;;;;8.60;63.43;98395.50;4942398;27;103373;-65
2023/12/24 03:12:52;;;;;;;0.90;0.88;;;;;;;8.60;63.34;98384.94;4938468;27;103336;-65
2023/12/24 03:15:21;;;;;;;1.52;1.00;;;;;;;8.60;63.46;98376.19;4952514;27;103433;-65
2023/12/24 03:17:49;;;;;;;1.00;1.00;;;;;;;8.65;63.26;98376.53;4923460;27;103160;-65
2023/12/24 03:20:18;;;;;;;0.90;0.90;;;;;;;8.63;63.68;98381.16;4949414;27;102715;-65
2023/12/24 03:22:46;;;;;;;3.00;1.30;;;;;;;8.63;64.05;98370.59;4939611;27;104468;-64
2023/12/24 03:25:14;;;;;;;1.75;1.13;;;;;;;8.62;63.70;98376.88;4925483;27;103322;-67
2023/12/24 03:27:42;;;;;;;0.75;0.75;;;;;;;8.62;63.89;98380.34;4938488;27;102661;-65
2023/12/24 03:30:12;;;;;;;0.82;0.82;;;;;;;8.51;64.36;98377.19;4940108;27;104278;-65
2023/12/24 03:32:40;;;;;;;1.50;1.20;;;;;;;8.57;64.23;98398.47;4922761;28;104574;-65
2023/12/24 03:35:11;;;;;;;1.60;1.10;;;;;;;8.63;64.07;98395.19;4919411;27;103195;-65
2023/12/24 03:37:39;;;;;;;2.00;1.10;;;;;;;8.55;63.91;98381.16;4920517;28;102736;-66
2023/12/24 03:40:08;;;;;;;1.27;1.00;;;;;;;8.60;64.19;98384.13;4932830;27;103225;-65
2023/12/24 03:42:36;;;;;;;1.50;1.08;;;;;;;8.59;64.07;98380.66;4943041;27;104027;-65
2023/12/24 03:45:05;;;;;;;0.90;0.90;;;;;;;8.57;64.64;98382.63;4920345;27;104177;-66
2023/12/24 03:47:35;;;;;;;0.80;0.80;;;;;;;8.63;64.10;98386.44;4919147;27;102815;-66
2023/12/24 03:50:05;;;;;;;2.60;1.25;;;;;;;8.56;64.43;98380.16;4938201;27;102781;-66
2023/12/24 03:52:33;;;;;;;0.95;0.93;;;;;;;8.55;64.07;98379.31;4923069;27;104355;-66
2023/12/24 03:55:01;;;;;;;1.10;1.00;;;;;;;8.54;64.37;98382.13;4929973;28;103411;-66
2023/12/24 03:57:29;;;;;;;1.67;1.20;;;;;;;8.48;64.44;98378.34;4951394;27;102675;-66
2023/12/24 03:59:57;;;;;;;1.08;1.05;;;;;;;8.58;64.39;98370.25;4925713;28;102716;-66
2023/12/24 04:02:26;;;;;;;6.97;1.60;;;;;;;8.52;63.91;98373.56;4925886;27;104164;-66
2023/12/24 04:04:55;;;;;;;1.20;1.00;;;;;;;8.54;64.42;98363.66;4941889;27;103195;-66
2023/12/24 04:07:23;;;;;;;1.05;0.90;;;;;;;8.59;63.93;98364.00;4922547;28;102769;-66
2023/12/24 04:09:51;;;;;;;1.95;1.30;;;;;;;8.62;63.82;98358.41;4946332;27;102893;-66
2023/12/24 04:12:19;;;;;;;1.65;1.25;;;;;;;8.56;63.70;98354.56;4954307;27;103175;-66
2023/12/24 04:14:49;;;;;;;1.83;1.30;;;;;;;8.67;63.39;98361.34;4937925;27;104280;-66
2023/12/24 04:17:17;;;;;;;1.52;1.20;;;;;;;8.61;63.62;98356.75;4941901;27;102887;-66
2023/12/24 04:19:46;;;;;;;0.98;0.98;;;;;;;8.60;63.67;98365.66;4927709;27;104435;-65
2023/12/24 04:22:15;;;;;;;1.98;1.30;;;;;;;8.61;63.55;98362.03;4939616;27;103418;-66
2023/12/24 04:24:43;;;;;;;1.45;1.23;;;;;;;8.63;63.63;98370.59;4938773;27;103264;-66
2023/12/24 04:27:11;;;;;;;1.20;1.10;;;;;;;8.61;63.38;98362.03;4924716;27;103246;-66
2023/12/24 04:29:40;;;;;;;4.82;1.38;;;;;;;8.59;63.15;98370.13;4925162;28;102777;-66
2023/12/24 04:32:08;;;;;;;5.38;1.98;;;;;;;8.60;63.78;98368.28;5001386;27;106093;-65
2023/12/24 04:34:36;;;;;;;1.73;1.13;;;;;;;8.62;63.59;98369.78;4923815;27;104300;-66
2023/12/24 04:37:06;;;;;;;1.42;1.30;;;;;;;8.65;63.03;98368.63;4921575;27;102717;-66
2023/12/24 04:39:36;;;;;;;1.75;1.20;;;;;;;8.58;63.70;98362.34;4946736;27;102987;-66
2023/12/24 04:42:04;;;;;;;2.53;1.50;;;;;;;8.62;63.05;98355.75;4928791;27;105107;-66
2023/12/24 04:44:32;;;;;;;2.25;1.38;;;;;;;8.62;63.67;98355.75;4916488;28;103187;-66
2023/12/24 04:47:01;;;;;;;1.80;1.45;;;;;;;8.59;63.19;98346.34;4919845;28;102967;-66
2023/12/24 04:49:31;;;;;;;2.70;1.33;;;;;;;8.52;63.73;98326.88;4922886;28;102824;-66
2023/12/24 04:52:00;;;;;;;1.27;1.15;;;;;;;8.54;64.05;98338.09;4925996;28;105027;-66
2023/12/24 04:54:29;;;;;;;1.40;1.25;;;;;;;8.48;63.69;98327.38;4924833;28;103237;-66
2023/12/24 04:57:00;;;;;;;1.65;1.27;;;;;;;8.51;63.83;98332.31;4931887;27;102795;-66
2023/12/24 04:59:28;;;;;;;1.75;1.20;;;;;;;8.58;64.34;98310.38;4935295;27;102738;-66
2023/12/24 05:01:57;;;;;;;2.33;1.48;;;;;;;8.48;64.26;98293.88;4938590;27;104050;-66
2023/12/24 05:04:27;;;;;;;1.67;1.25;;;;;;;8.45;64.67;98295.03;4936863;27;104261;-66
2023/12/24 05:06:56;;;;;;;1.73;1.20;;;;;;;8.39;64.82;98295.66;4921759;28;102926;-66
2023/12/24 05:09:26;;;;;;;2.05;1.38;;;;;;;8.39;64.94;98279.00;4927019;27;102685;-66
2023/12/24 05:11:54;;;;;;;0.95;0.95;;;;;;;8.33;64.90;98285.72;4928605;28;103337;-66
2023/12/24 05:14:26;;;;;;;0.88;0.88;;;;;;;8.37;65.46;98281.81;4932012;28;103214;-66
2023/12/24 05:16:54;;;;;;;1.25;1.13;;;;;;;8.25;65.25;98277.81;4922473;27;103098;-65
2023/12/24 05:19:22;;;;;;;1.95;1.30;;;;;;;8.34;65.14;98276.84;4940902;27;102653;-66
2023/12/24 05:21:50;;;;;;;1.15;1.05;;;;;;;8.37;64.92;98271.25;4926942;27;103211;-66
2023/12/24 05:24:18;;;;;;;1.30;1.17;;;;;;;8.26;65.30;98285.56;4959774;27;105156;-67
2023/12/24 05:26:46;;;;;;;1.35;1.10;;;;;;;8.26;65.51;98279.47;4928502;28;102811;-66
2023/12/24 05:29:15;;;;;;;0.95;0.90;;;;;;;8.31;65.52;98293.00;4947786;27;102973;-66
2023/12/24 05:31:44;;;;;;;1.15;1.00;;;;;;;8.35;64.84;98294.31;4941227;27;104008;-66
2023/12/24 05:34:12;;;;;;;1.73;1.10;;;;;;;8.30;65.35;98297.47;4935586;28;103192;-65
2023/12/24 05:36:40;;;;;;;1.40;1.20;;;;;;;8.28;65.39;98317.09;4922446;27;102849;-65
2023/12/24 05:39:11;;;;;;;1.98;1.40;;;;;;;8.33;65.33;98321.88;4936289;27;104273;-66
2023/12/24 05:41:44;;;;;;;0.93;0.90;;;;;;;8.29;65.43;98322.19;4925601;28;103236;-66
2023/12/24 05:44:12;;;;;;;1.60;1.23;;;;;;;8.28;65.31;98330.28;4938911;28;103199;-66
2023/12/24 05:46:40;;;;;;;0.90;0.90;;;;;;;8.32;65.35;98315.78;4927453;28;103796;-66
2023/12/24 05:49:11;;;;;;;1.10;1.00;;;;;;;8.30;65.20;98302.75;4944263;27;102850;-65
2023/12/24 05:51:39;;;;;;;1.17;0.82;;;;;;;8.37;65.44;98307.34;4939815;27;103689;-66
2023/12/24 05:54:07;;;;;;;1.27;1.00;;;;;;;8.33;65.75;98300.75;4939472;27;103283;-65
2023/12/24 05:56:35;;;;;;;0.88;0.88;;;;;;;8.36;65.25;98303.06;4935641;28;102615;-65
2023/12/24 05:59:03;;;;;;;0.80;0.80;;;;;;;8.34;65.66;98290.03;5011817;27;102706;-65
2023/12/24 06:01:34;;;;;;;0.98;0.90;;;;;;;8.34;65.49;98303.22;4942952;27;103181;-65
2023/12/24 06:04:02;;;;;;;1.00;1.00;;;;;;;8.35;65.46;98294.31;4922397;28;102597;-65
2023/12/24 06:06:31;;;;;;;1.25;0.90;;;;;;;8.34;65.49;98300.59;4941682;27;102674;-66
2023/12/24 06:08:59;;;;;;;0.98;0.95;;;;;;;8.36;65.44;98285.44;4925123;27;102788;-65
2023/12/24 06:11:29;;;;;;;1.08;0.98;;;;;;;8.34;65.38;98279.47;4941660;27;103489;-65
2023/12/24 06:13:57;;;;;;;0.93;0.80;;;;;;;8.23;65.68;98274.53;4938583;27;103222;-65
2023/12/24 06:16:24;;;;;;;0.70;0.70;;;;;;;8.36;66.09;98269.59;4947959;27;103839;-65
2023/12/24 06:18:53;;;;;;;2.03;1.08;;;;;;;8.33;65.66;98277.00;4920017;27;104473;-66
2023/12/24 06:21:23;;;;;;;0.93;0.80;;;;;;;8.37;65.50;98271.25;4938309;27;103228;-65
2023/12/24 06:23:53;;;;;;;0.85;0.85;;;;;;;8.27;66.01;98275.84;4941995;27;103250;-65
2023/12/24 06:26:21;;;;;;;1.30;1.00;;;;;;;8.33;65.74;98275.19;4937333;27;102601;-65
2023/12/24 06:28:51;;;;;;;0.82;0.80;;;;;;;8.32;65.99;98267.44;4939536;27;102732;-66
2023/12/24 06:31:22;;;;;;;1.00;0.80;;;;;;;8.26;66.59;98259.19;4942088;27;103326;-65
2023/12/24 06:33:51;;;;;;;0.65;0.65;;;;;;;8.31;66.00;98261.34;4940848;27;103246;-65
2023/12/24 06:36:19;;;;;;;1.58;0.90;;;;;;;8.35;66.20;98270.59;4941710;27;102676;-65
2023/12/24 06:38:47;;;;;;;0.70;0.70;;;;;;;8.32;65.95;98257.72;4945622;27;103883;-65
2023/12/24 06:41:16;;;;;;;1.60;1.10;;;;;;;8.33;66.19;98263.81;4936391;27;104164;-66
2023/12/24 06:43:45;;;;;;;1.23;1.13;;;;;;;8.33;66.25;98259.34;4939045;27;103180;-65
2023/12/24 06:46:13;;;;;;;0.93;0.93;;;;;;;8.40;66.42;98249.81;4942643;27;103907;-66
2023/12/24 06:48:41;;;;;;;2.72;1.33;;;;;;;8.41;66.34;98240.91;4925725;28;102765;-66
2023/12/24 06:51:11;;;;;;;1.45;0.90;;;;;;;8.46;66.25;98238.63;4937040;27;103946;-66
2023/12/24 06:53:40;;;;;;;0.75;0.75;;;;;;;8.53;65.73;98248.50;4937551;27;103855;-65
2023/12/24 06:56:08;;;;;;;0.80;0.80;;;;;;;8.51;66.41;98245.22;4937256;27;102962;-66
2023/12/24 06:58:37;;;;;;;1.23;0.80;;;;;;;8.51;66.15;98247.84;4939808;27;103314;-66
2023/12/24 07:01:05;;;;;;;2.00;1.33;;;;;;;8.52;66.26;98246.88;4950847;27;104103;-64
2023/12/24 07:03:33;;;;;;;2.67;1.10;;;;;;;8.50;66.33;98238.28;4942481;27;103159;-65
2023/12/24 07:06:01;;;;;;;1.52;1.00;;;;;;;8.47;66.14;98244.72;4941193;27;102647;-66
2023/12/24 07:08:31;;;;;;;1.25;1.00;;;;;;;8.55;66.22;98236.78;4925487;27;104430;-65
2023/12/24 07:11:00;;;;;;;1.55;1.20;;;;;;;8.57;65.99;98218.97;4938741;27;103289;-65
2023/12/24 07:13:31;;;;;;;1.33;1.20;;;;;;;8.59;66.20;98221.44;4944431;27;103218;-65
2023/12/24 07:15:59;;;;;;;1.17;1.08;;;;;;;8.63;66.08;98223.59;4938477;27;103131;-65
2023/12/24 07:18:27;;;;;;;1.85;0.93;;;;;;;8.66;65.99;98224.22;4931693;27;102752;-67
2023/12/24 07:20:56;;;;;;;1.33;1.20;;;;;;;8.63;66.12;98225.38;4941002;27;103624;-66
2023/12/24 07:23:27;;;;;;;0.90;0.90;;;;;;;8.72;66.06;98223.56;4925512;27;103354;-65
2023/12/24 07:25:58;;;;;;;1.02;1.00;;;;;;;8.68;65.91;98225.72;4922419;28;102770;-64
2023/12/24 07:28:26;;;;;;;1.58;1.10;;;;;;;8.73;66.20;98227.88;4950742;27;102707;-65
2023/12/24 07:30:54;;;;;;;1.05;0.95;;;;;;;8.77;66.83;98224.69;4926038;27;103373;-65
2023/12/24 07:33:23;;;;;;;1.63;1.27;;;;;;;8.79;67.66;98227.19;4941517;27;103274;-65
2023/12/24 07:35:51;;;;;;;0.85;0.85;;;;;;;8.72;68.19;98224.38;4935897;27;103671;-65
2023/12/24 07:38:19;;;;;;;1.23;1.08;;;;;;;8.70;68.34;98207.06;4944479;27;102671;-65
2023/12/24 07:40:50;;;;;;;1.52;1.20;;;;;;;8.65;68.22;98204.94;5006215;27;104551;-64
2023/12/24 07:43:18;;;;;;;1.02;0.88;;;;;;;8.68;67.64;98204.59;4931545;28;103674;-64
2023/12/24 07:45:46;;;;;;;1.15;1.02;;;;;;;8.71;68.24;98199.00;4943440;27;103871;-66
2023/12/24 07:48:14;;;;;;;1.70;1.50;;;;;;;8.67;69.00;98195.03;4936728;27;102659;-66
2023/12/24 07:50:45;;;;;;;1.10;0.98;;;;;;;8.67;69.43;98187.09;4938591;27;103338;-65
2023/12/24 07:53:13;;;;;;;2.53;1.10;;;;;;;8.63;69.00;98186.63;4945489;27;103246;-65
2023/12/24 07:55:41;;;;;;;1.58;1.20;;;;;;;8.64;69.33;98192.72;4939057;27;102677;-65
2023/12/24 07:58:09;;;;;;;0.90;0.90;;;;;;;8.64;69.28;98198.00;4929548;27;103130;-66
2023/12/24 08:00:37;;;;;;;1.60;1.05;;;;;;;8.70;68.80;98197.34;4940106;27;103775;-62
2023/12/24 08:03:05;;;;;;;0.70;0.70;;;;;;;8.72;69.15;98199.81;4942447;27;103528;-62
2023/12/24 08:05:34;;;;;;;7.18;1.45;;;;;;;8.74;68.74;98208.41;4936913;27;102835;-61
2023/12/24 08:08:06;;;;;;;3.13;1.10;;;;;;;8.78;68.79;98215.00;4937542;27;104186;-63
2023/12/24 08:10:34;;;;;;;1.88;1.30;;;;;;;8.79;69.05;98233.28;4943946;27;103036;-63
2023/12/24 08:13:03;;;;;;;1.10;0.98;;;;;;;8.83;68.50;98217.09;4923019;28;103412;-68
2023/12/24 08:15:40;;;;;;;0.82;0.80;;;;;;;8.83;68.25;98217.09;4926247;28;102865;-66
2023/12/24 08:18:09;;;;;;;0.75;0.70;;;;;;;8.87;68.19;98207.84;4940441;28;102613;-67
2023/12/24 08:20:39;;;;;;;0.75;0.73;;;;;;;8.77;68.04;98203.59;4931431;27;103240;-66
2023/12/24 08:23:10;;;;;;;0.65;0.60;;;;;;;8.89;67.72;98197.94;4939514;27;103217;-67
2023/12/24 08:25:39;;;;;;;0.77;0.70;;;;;;;8.93;68.53;98192.19;4924934;28;103171;-67
2023/12/24 08:28:07;;;;;;;1.13;0.88;;;;;;;8.91;67.88;98193.34;4942140;27;103175;-66
2023/12/24 08:30:35;;;;;;;1.45;1.10;;;;;;;8.94;67.96;98177.94;4922123;28;103814;-66
2023/12/24 08:33:03;;;;;;;1.55;1.10;;;;;;;8.98;67.86;98170.50;4920906;27;103376;-66
2023/12/24 08:35:32;;;;;;;0.80;0.80;;;;;;;9.02;67.85;98169.19;4944531;28;102696;-67
2023/12/24 08:38:01;;;;;;;1.70;1.00;;;;;;;9.02;68.00;98169.19;4944663;27;103971;-66
2023/12/24 08:40:32;;;;;;;1.17;0.85;;;;;;;8.97;67.53;98155.66;4942980;27;103171;-67
2023/12/24 08:43:01;;;;;;;0.75;0.75;;;;;;;9.07;67.82;98156.28;4942885;27;103299;-66
2023/12/24 08:45:31;;;;;;;1.13;0.80;;;;;;;9.05;68.13;98141.59;4935026;27;102743;-67
2023/12/24 08:47:59;;;;;;;1.75;0.88;;;;;;;9.03;67.69;98143.59;4937495;28;102618;-67
2023/12/24 08:50:28;;;;;;;0.90;0.70;;;;;;;9.02;68.07;98134.03;4924491;28;103195;-67
2023/12/24 08:52:58;;;;;;;0.85;0.65;;;;;;;9.16;67.51;98143.03;4923671;27;102956;-68
2023/12/24 08:55:26;;;;;;;0.60;0.60;;;;;;;9.21;67.66;98145.97;4951337;27;103086;-67
2023/12/24 08:57:56;;;;;;;0.88;0.80;;;;;;;9.27;67.12;98150.56;4940153;27;103904;-67
2023/12/24 09:00:26;;;;;;;0.60;0.60;;;;;;;9.33;67.24;98157.81;4942676;27;103239;-68
2023/12/24 09:02:54;;;;;;;0.60;0.60;;;;;;;9.34;67.27;98170.03;4957895;27;104340;-69
2023/12/24 09:05:22;;;;;;;0.65;0.65;;;;;;;9.35;67.50;98171.66;4938437;27;102612;-68
2023/12/24 09:07:50;;;;;;;0.65;0.60;;;;;;;9.42;67.95;98175.28;4943137;27;104127;-68
2023/12/24 09:10:21;;;;;;;1.00;0.80;;;;;;;9.48;68.49;98168.47;4941055;27;104321;-69
2023/12/24 09:12:49;;;;;;;0.90;0.82;;;;;;;9.45;68.93;98189.97;4940541;27;103173;-69
2023/12/24 09:15:22;;;;;;;0.95;0.80;;;;;;;9.42;69.94;98185.84;4940597;28;103055;-68
2023/12/24 09:17:50;;;;;;;1.05;0.77;;;;;;;9.34;70.02;98193.84;4928230;28;104226;-69
2023/12/24 09:20:18;;;;;;;0.82;0.80;;;;;;;9.39;70.55;98203.88;4923571;28;103725;-69
2023/12/24 09:22:46;;;;;;;1.10;0.82;;;;;;;9.34;71.39;98203.56;4940887;27;103223;-69
2023/12/24 09:25:17;;;;;;;0.60;0.60;;;;;;;9.27;72.33;98204.28;4938299;27;102721;-69
2023/12/24 09:27:45;;;;;;;0.82;0.73;;;;;;;9.24;72.70;98217.81;4921143;27;103809;-69
2023/12/24 09:30:13;;;;;;;1.08;0.88;;;;;;;9.23;73.22;98202.13;4944216;27;103203;-67
2023/12/24 09:32:43;;;;;;;1.23;1.00;;;;;;;9.24;72.61;98195.84;4942699;27;103139;-67
2023/12/24 09:35:12;;;;;;;1.20;1.00;;;;;;;9.17;73.09;98198.38;4927393;28;102779;-69
2023/12/24 09:37:40;;;;;;;0.93;0.75;;;;;;;9.13;73.89;98197.88;4933410;27;102753;-68
2023/12/24 09:40:08;;;;;;;1.40;1.30;;;;;;;9.05;73.99;98197.91;4941304;27;103266;-69
2023/12/24 09:42:38;;;;;;;1.08;0.95;;;;;;;9.12;74.18;98198.88;4940897;27;103190;-69
2023/12/24 09:45:07;;;;;;;0.68;0.68;;;;;;;9.04;74.36;98190.97;4941686;27;102661;-69
2023/12/24 09:47:35;;;;;;;0.80;0.80;;;;;;;9.06;74.52;98196.91;4941473;27;102970;-70
2023/12/24 09:50:06;;;;;;;1.63;1.00;;;;;;;9.13;74.28;98197.88;4934773;27;103263;-70
2023/12/24 09:52:36;;;;;;;3.17;1.10;;;;;;;9.11;75.57;98199.84;4939127;28;103288;-69
2023/12/24 09:55:27;;;;;;;3.28;1.00;;;;;;;9.00;75.82;98202.88;4924230;27;103247;-69
2023/12/24 09:58:08;;;;;;;2.97;0.88;;;;;;;9.05;75.70;98189.16;4956323;27;104198;-69
2023/12/24 10:00:36;;;;;;;1.88;1.10;;;;;;;9.01;75.95;98199.22;4931764;27;104138;-70
2023/12/24 10:03:05;;;;;;;1.00;0.90;;;;;;;9.07;75.92;98198.53;4948625;27;103189;-70
2023/12/24 10:05:34;;;;;;;1.23;1.10;;;;;;;9.03;75.81;98197.25;4945051;28;102927;-70
2023/12/24 10:08:03;;;;;;;1.02;1.00;;;;;;;9.03;75.43;98199.06;4929443;28;103846;-70
2023/12/24 10:10:32;;;;;;;0.80;0.80;;;;;;;9.07;75.33;98197.75;4949514;27;104362;-71
2023/12/24 10:13:07;;;;;;;0.85;0.85;;;;;;;9.02;75.69;98200.88;4929121;27;104301;-70
2023/12/24 10:15:38;;;;;;;1.52;1.05;;;;;;;8.98;75.33;98196.94;4939168;27;103830;-70
2023/12/24 10:18:19;;;;;;;1.38;0.90;;;;;;;9.00;75.22;98188.84;4932809;27;103718;-69
2023/12/24 10:20:49;;;;;;;1.65;1.10;;;;;;;9.01;75.25;98183.38;4934152;27;104091;-70
2023/12/24 10:23:20;;;;;;;1.50;1.02;;;;;;;9.00;74.93;98187.03;4920345;27;103364;-70
2023/12/24 10:26:01;;;;;;;0.80;0.80;;;;;;;9.07;74.41;98184.53;4938796;27;102553;-70
2023/12/24 10:28:29;;;;;;;1.92;1.23;;;;;;;8.94;74.40;98177.13;4942642;27;102740;-70
2023/12/24 10:31:08;;;;;;;0.93;0.80;;;;;;;8.98;73.65;98173.16;4931931;27;104158;-72
2023/12/24 10:33:39;;;;;;;1.10;0.98;;;;;;;9.01;73.89;98175.44;4944453;27;103205;-71
2023/12/24 10:36:09;;;;;;;1.10;0.90;;;;;;;9.04;74.54;98177.78;4939366;28;102742;-70
2023/12/24 10:38:38;;;;;;;2.70;1.00;;;;;;;9.05;73.54;98174.13;4924438;28;102950;-70
2023/12/24 10:41:07;;;;;;;1.17;0.75;;;;;;;9.17;73.65;98179.03;4927839;28;103001;-70
2023/12/24 10:43:37;;;;;;;1.35;0.93;;;;;;;9.16;73.93;98185.28;4944446;28;103147;-71
2023/12/24 10:46:06;;;;;;;0.80;0.80;;;;;;;9.21;73.19;98180.31;4942552;27;103343;-71
2023/12/24 10:48:34;;;;;;;1.90;0.90;;;;;;;9.26;72.89;98180.63;4938922;28;102799;-68
2023/12/24 10:51:02;;;;;;;0.75;0.75;;;;;;;9.28;72.35;98187.38;4927408;28;103258;-69
2023/12/24 10:53:32;;;;;;;1.05;0.88;;;;;;;9.24;72.09;98188.75;4919494;28;103284;-69
2023/12/24 10:56:04;;;;;;;0.75;0.70;;;;;;;9.28;72.13;98184.75;4922822;28;102576;-67
2023/12/24 10:58:42;;;;;;;0.85;0.80;;;;;;;9.28;72.88;98181.28;4924893;28;102829;-68
2023/12/24 11:01:10;;;;;;;0.85;0.85;;;;;;;9.24;72.98;98172.88;4946194;27;105003;-67
2023/12/24 11:03:44;;;;;;;1.10;1.00;;;;;;;9.30;73.35;98176.66;4951109;27;104269;-67
2023/12/24 11:06:32;;;;;;;1.60;1.20;;;;;;;9.34;73.20;98172.69;4936562;27;102583;-69
2023/12/24 11:09:05;;;;;;;3.72;1.33;;;;;;;9.34;72.99;98161.28;4939433;27;103084;-68
2023/12/24 11:11:53;;;;;;;3.00;1.42;;;;;;;9.34;73.15;98162.13;4921934;27;104511;-68
2023/12/24 11:14:39;;;;;;;3.67;2.25;;;;;;;9.42;72.29;98161.25;4930694;27;103913;-68
2023/12/24 11:17:08;;;;;;;13.45;9.90;;;;;;;9.43;72.34;98150.50;5014040;27;102811;-68
2023/12/24 11:19:41;;;;;;;21.25;13.43;;;;;;;9.48;71.70;98162.38;4943570;28;102684;-68
2023/12/24 11:22:13;;;;;;;10.02;5.22;;;;;;;9.58;71.75;98155.03;4925138;28;104589;-68
2023/12/24 11:24:44;;;;;;;13.68;10.13;;;;;;;9.53;71.25;98146.81;4953850;27;104179;-69
2023/12/24 11:27:21;;;;;;;11.90;8.70;;;;;;;9.62;71.08;98148.41;4958899;27;102639;-69
2023/12/24 11:29:52;;;;;;;3.65;2.25;;;;;;;9.57;70.37;98148.09;4945631;27;102774;-69
2023/12/24 11:32:37;;;;;;;3.53;1.85;;;;;;;9.63;70.57;98150.06;4946416;28;104233;-70
2023/12/24 11:35:08;;;;;;;1.15;1.05;;;;;;;9.62;70.03;98153.69;4943926;27;103261;-70
2023/12/24 11:37:39;;;;;;;1.30;1.20;;;;;;;9.65;70.11;98152.50;4944611;27;102592;-70
2023/12/24 11:40:12;;;;;;;1.58;1.30;;;;;;;9.69;69.67;98162.53;4940460;27;104369;-70
2023/12/24 11:42:44;;;;;;;1.50;1.40;;;;;;;9.78;69.59;98145.63;4945936;27;103340;-70
2023/12/24 11:45:23;;;;;;;0.85;0.85;;;;;;;9.79;69.16;98163.13;4939762;27;103181;-70